sensor_id;sensor_type;location;lat;lon;timestamp;P1;durP1;ratioP1;P2;durP2;ratioP2
32080;SDS011;18593;51.426;7.030;2023-10-08T00:02:25;11.45;;;4.97;;
32080;SDS011;18593;51.426;7.030;2023-10-08T00:04:53;11.13;;;4.97;;
32080;SDS011;18593;51.426;7.030;2023-10-08T00:07:22;13.18;;;5.45;;
32080;SDS011;18593;51.426;7.030;2023-10-08T00:09:50;12.57;;;5.63;;
32080;SDS011;18593;51.426;7.030;2023-10-08T00:12:18;9.63;;;4.60;;
32080;SDS011;18593;51.426;7.030;2023-10-08T00:14:46;12.55;;;4.85;;
32080;SDS011;18593;51.426;7.030;2023-10-08T00:17:18;12.63;;;4.95;;
32080;SDS011;18593;51.426;7.030;2023-10-08T00:19:47;14.25;;;5.22;;
32080;SDS011;18593;51.426;7.030;2023-10-08T00:22:17;9.02;;;4.95;;
32080;SDS011;18593;51.426;7.030;2023-10-08T00:24:45;12.52;;;4.63;;
32080;SDS011;18593;51.426;7.030;2023-10-08T00:27:15;10.90;;;5.32;;
32080;SDS011;18593;51.426;7.030;2023-10-08T00:29:43;13.10;;;5.45;;
32080;SDS011;18593;51.426;7.030;2023-10-08T00:32:10;11.70;;;5.10;;
32080;SDS011;18593;51.426;7.030;2023-10-08T00:34:38;12.02;;;5.55;;
32080;SDS011;18593;51.426;7.030;2023-10-08T00:37:10;16.15;;;5.68;;
32080;SDS011;18593;51.426;7.030;2023-10-08T00:42:08;13.20;;;5.80;;
32080;SDS011;18593;51.426;7.030;2023-10-08T00:44:38;15.00;;;6.47;;
32080;SDS011;18593;51.426;7.030;2023-10-08T00:47:13;14.25;;;6.70;;
32080;SDS011;18593;51.426;7.030;2023-10-08T00:49:46;14.75;;;6.43;;
32080;SDS011;18593;51.426;7.030;2023-10-08T00:52:30;13.00;;;5.65;;
32080;SDS011;18593;51.426;7.030;2023-10-08T00:55:05;11.40;;;5.60;;
32080;SDS011;18593;51.426;7.030;2023-10-08T00:57:40;12.48;;;5.57;;
32080;SDS011;18593;51.426;7.030;2023-10-08T01:00:13;16.10;;;5.63;;
32080;SDS011;18593;51.426;7.030;2023-10-08T01:02:47;13.32;;;5.75;;
32080;SDS011;18593;51.426;7.030;2023-10-08T01:05:20;11.95;;;5.15;;
32080;SDS011;18593;51.426;7.030;2023-10-08T01:08:03;16.40;;;5.55;;
32080;SDS011;18593;51.426;7.030;2023-10-08T01:10:32;13.17;;;5.97;;
32080;SDS011;18593;51.426;7.030;2023-10-08T01:13:02;15.40;;;6.15;;
32080;SDS011;18593;51.426;7.030;2023-10-08T01:15:35;18.33;;;5.50;;
32080;SDS011;18593;51.426;7.030;2023-10-08T01:18:03;11.02;;;4.97;;
32080;SDS011;18593;51.426;7.030;2023-10-08T01:20:39;10.48;;;4.80;;
32080;SDS011;18593;51.426;7.030;2023-10-08T01:23:16;14.07;;;6.05;;
32080;SDS011;18593;51.426;7.030;2023-10-08T01:25:46;16.77;;;5.88;;
32080;SDS011;18593;51.426;7.030;2023-10-08T01:28:16;12.55;;;5.97;;
32080;SDS011;18593;51.426;7.030;2023-10-08T01:30:51;10.68;;;5.55;;
32080;SDS011;18593;51.426;7.030;2023-10-08T01:33:20;14.45;;;6.18;;
32080;SDS011;18593;51.426;7.030;2023-10-08T01:35:53;13.80;;;6.00;;
32080;SDS011;18593;51.426;7.030;2023-10-08T01:38:28;17.75;;;5.82;;
32080;SDS011;18593;51.426;7.030;2023-10-08T01:43:30;14.05;;;5.40;;
32080;SDS011;18593;51.426;7.030;2023-10-08T01:45:58;13.48;;;5.45;;
32080;SDS011;18593;51.426;7.030;2023-10-08T01:48:29;18.83;;;6.00;;
32080;SDS011;18593;51.426;7.030;2023-10-08T01:51:02;12.20;;;5.53;;
32080;SDS011;18593;51.426;7.030;2023-10-08T01:53:35;11.75;;;5.78;;
32080;SDS011;18593;51.426;7.030;2023-10-08T01:56:03;12.38;;;5.35;;
32080;SDS011;18593;51.426;7.030;2023-10-08T01:58:31;12.43;;;5.45;;
32080;SDS011;18593;51.426;7.030;2023-10-08T02:00:59;12.18;;;5.40;;
32080;SDS011;18593;51.426;7.030;2023-10-08T02:03:31;12.98;;;5.32;;
32080;SDS011;18593;51.426;7.030;2023-10-08T02:05:59;15.00;;;5.60;;
32080;SDS011;18593;51.426;7.030;2023-10-08T02:08:31;17.90;;;5.68;;
32080;SDS011;18593;51.426;7.030;2023-10-08T02:11:00;17.75;;;5.80;;
32080;SDS011;18593;51.426;7.030;2023-10-08T02:13:27;10.68;;;5.65;;
32080;SDS011;18593;51.426;7.030;2023-10-08T02:15:55;16.90;;;5.63;;
32080;SDS011;18593;51.426;7.030;2023-10-08T02:18:23;15.38;;;5.80;;
32080;SDS011;18593;51.426;7.030;2023-10-08T02:20:50;13.98;;;6.28;;
32080;SDS011;18593;51.426;7.030;2023-10-08T02:23:19;13.15;;;5.80;;
32080;SDS011;18593;51.426;7.030;2023-10-08T02:25:46;13.73;;;5.63;;
32080;SDS011;18593;51.426;7.030;2023-10-08T02:28:16;13.73;;;5.97;;
32080;SDS011;18593;51.426;7.030;2023-10-08T02:33:12;15.52;;;6.28;;
32080;SDS011;18593;51.426;7.030;2023-10-08T02:35:41;16.80;;;6.05;;
32080;SDS011;18593;51.426;7.030;2023-10-08T02:38:10;15.80;;;6.03;;
32080;SDS011;18593;51.426;7.030;2023-10-08T02:40:38;13.48;;;6.15;;
32080;SDS011;18593;51.426;7.030;2023-10-08T02:43:10;13.10;;;5.78;;
32080;SDS011;18593;51.426;7.030;2023-10-08T02:45:41;13.93;;;5.78;;
32080;SDS011;18593;51.426;7.030;2023-10-08T02:48:13;14.68;;;5.65;;
32080;SDS011;18593;51.426;7.030;2023-10-08T02:50:40;11.07;;;5.40;;
32080;SDS011;18593;51.426;7.030;2023-10-08T02:53:10;13.65;;;5.55;;
32080;SDS011;18593;51.426;7.030;2023-10-08T02:55:43;11.80;;;5.45;;
32080;SDS011;18593;51.426;7.030;2023-10-08T02:58:12;15.23;;;5.88;;
32080;SDS011;18593;51.426;7.030;2023-10-08T03:00:42;15.10;;;6.32;;
32080;SDS011;18593;51.426;7.030;2023-10-08T03:03:12;14.20;;;5.80;;
32080;SDS011;18593;51.426;7.030;2023-10-08T03:05:44;17.38;;;6.50;;
32080;SDS011;18593;51.426;7.030;2023-10-08T03:08:13;15.68;;;6.00;;
32080;SDS011;18593;51.426;7.030;2023-10-08T03:10:45;12.70;;;6.38;;
32080;SDS011;18593;51.426;7.030;2023-10-08T03:13:15;14.80;;;5.90;;
32080;SDS011;18593;51.426;7.030;2023-10-08T03:15:46;16.73;;;5.55;;
32080;SDS011;18593;51.426;7.030;2023-10-08T03:18:23;14.35;;;5.93;;
32080;SDS011;18593;51.426;7.030;2023-10-08T03:21:01;12.73;;;5.90;;
32080;SDS011;18593;51.426;7.030;2023-10-08T03:23:30;16.45;;;5.85;;
32080;SDS011;18593;51.426;7.030;2023-10-08T03:26:01;13.68;;;6.15;;
32080;SDS011;18593;51.426;7.030;2023-10-08T03:28:37;10.77;;;5.00;;
32080;SDS011;18593;51.426;7.030;2023-10-08T03:31:08;19.35;;;5.55;;
32080;SDS011;18593;51.426;7.030;2023-10-08T03:33:42;11.98;;;5.30;;
32080;SDS011;18593;51.426;7.030;2023-10-08T03:36:14;14.25;;;5.80;;
32080;SDS011;18593;51.426;7.030;2023-10-08T03:38:47;11.13;;;5.07;;
32080;SDS011;18593;51.426;7.030;2023-10-08T03:41:18;11.60;;;5.47;;
32080;SDS011;18593;51.426;7.030;2023-10-08T03:43:52;13.95;;;5.63;;
32080;SDS011;18593;51.426;7.030;2023-10-08T03:46:28;13.10;;;5.47;;
32080;SDS011;18593;51.426;7.030;2023-10-08T03:48:56;13.43;;;5.38;;
32080;SDS011;18593;51.426;7.030;2023-10-08T03:51:30;14.45;;;4.95;;
32080;SDS011;18593;51.426;7.030;2023-10-08T03:54:04;10.43;;;5.25;;
32080;SDS011;18593;51.426;7.030;2023-10-08T03:56:44;13.80;;;5.10;;
32080;SDS011;18593;51.426;7.030;2023-10-08T03:59:16;13.05;;;5.43;;
32080;SDS011;18593;51.426;7.030;2023-10-08T04:01:57;12.77;;;5.45;;
32080;SDS011;18593;51.426;7.030;2023-10-08T04:04:28;16.05;;;6.47;;
32080;SDS011;18593;51.426;7.030;2023-10-08T04:07:14;13.25;;;6.28;;
32080;SDS011;18593;51.426;7.030;2023-10-08T04:10:05;13.90;;;6.20;;
32080;SDS011;18593;51.426;7.030;2023-10-08T04:13:04;13.82;;;6.70;;
32080;SDS011;18593;51.426;7.030;2023-10-08T04:15:34;15.73;;;6.25;;
32080;SDS011;18593;51.426;7.030;2023-10-08T04:18:07;15.52;;;6.50;;
32080;SDS011;18593;51.426;7.030;2023-10-08T04:20:35;15.60;;;5.95;;
32080;SDS011;18593;51.426;7.030;2023-10-08T04:23:05;13.77;;;6.00;;
32080;SDS011;18593;51.426;7.030;2023-10-08T04:25:43;16.50;;;6.35;;
32080;SDS011;18593;51.426;7.030;2023-10-08T04:28:13;14.65;;;5.75;;
32080;SDS011;18593;51.426;7.030;2023-10-08T04:30:42;10.85;;;5.45;;
32080;SDS011;18593;51.426;7.030;2023-10-08T04:33:17;14.27;;;6.03;;
32080;SDS011;18593;51.426;7.030;2023-10-08T04:35:44;18.63;;;6.05;;
32080;SDS011;18593;51.426;7.030;2023-10-08T04:38:18;11.77;;;5.47;;
32080;SDS011;18593;51.426;7.030;2023-10-08T04:40:48;14.70;;;5.85;;
32080;SDS011;18593;51.426;7.030;2023-10-08T04:43:17;15.43;;;6.00;;
32080;SDS011;18593;51.426;7.030;2023-10-08T04:45:50;16.25;;;6.20;;
32080;SDS011;18593;51.426;7.030;2023-10-08T04:48:20;12.85;;;5.43;;
32080;SDS011;18593;51.426;7.030;2023-10-08T04:50:47;17.95;;;6.57;;
32080;SDS011;18593;51.426;7.030;2023-10-08T04:53:24;11.73;;;5.93;;
32080;SDS011;18593;51.426;7.030;2023-10-08T04:55:58;17.10;;;6.85;;
32080;SDS011;18593;51.426;7.030;2023-10-08T04:58:30;12.70;;;6.13;;
32080;SDS011;18593;51.426;7.030;2023-10-08T05:01:02;12.18;;;5.78;;
32080;SDS011;18593;51.426;7.030;2023-10-08T05:03:45;16.85;;;6.03;;
32080;SDS011;18593;51.426;7.030;2023-10-08T05:06:48;18.65;;;6.28;;
32080;SDS011;18593;51.426;7.030;2023-10-08T05:09:42;16.35;;;5.63;;
32080;SDS011;18593;51.426;7.030;2023-10-08T05:12:17;16.75;;;6.28;;
32080;SDS011;18593;51.426;7.030;2023-10-08T05:15:03;14.15;;;5.88;;
32080;SDS011;18593;51.426;7.030;2023-10-08T05:17:58;12.88;;;6.25;;
32080;SDS011;18593;51.426;7.030;2023-10-08T05:20:40;14.63;;;6.20;;
32080;SDS011;18593;51.426;7.030;2023-10-08T05:23:25;14.98;;;6.28;;
32080;SDS011;18593;51.426;7.030;2023-10-08T05:26:10;14.55;;;5.88;;
32080;SDS011;18593;51.426;7.030;2023-10-08T05:28:46;19.85;;;6.18;;
32080;SDS011;18593;51.426;7.030;2023-10-08T05:31:26;14.32;;;5.47;;
32080;SDS011;18593;51.426;7.030;2023-10-08T05:34:13;14.88;;;6.03;;
32080;SDS011;18593;51.426;7.030;2023-10-08T05:36:43;13.80;;;5.50;;
32080;SDS011;18593;51.426;7.030;2023-10-08T05:39:37;15.75;;;6.13;;
32080;SDS011;18593;51.426;7.030;2023-10-08T05:42:12;16.73;;;5.32;;
32080;SDS011;18593;51.426;7.030;2023-10-08T05:44:42;12.18;;;5.53;;
32080;SDS011;18593;51.426;7.030;2023-10-08T05:47:12;12.50;;;5.70;;
32080;SDS011;18593;51.426;7.030;2023-10-08T05:50:04;11.70;;;5.28;;
32080;SDS011;18593;51.426;7.030;2023-10-08T05:52:51;12.35;;;5.45;;
32080;SDS011;18593;51.426;7.030;2023-10-08T05:55:30;13.05;;;5.30;;
32080;SDS011;18593;51.426;7.030;2023-10-08T05:58:02;14.65;;;5.53;;
32080;SDS011;18593;51.426;7.030;2023-10-08T06:00:50;14.57;;;6.10;;
32080;SDS011;18593;51.426;7.030;2023-10-08T06:03:51;13.30;;;5.25;;
32080;SDS011;18593;51.426;7.030;2023-10-08T06:06:37;10.68;;;5.63;;
32080;SDS011;18593;51.426;7.030;2023-10-08T06:09:14;13.80;;;5.75;;
32080;SDS011;18593;51.426;7.030;2023-10-08T06:11:48;11.32;;;5.30;;
32080;SDS011;18593;51.426;7.030;2023-10-08T06:14:29;12.35;;;5.63;;
32080;SDS011;18593;51.426;7.030;2023-10-08T06:17:18;14.35;;;6.00;;
32080;SDS011;18593;51.426;7.030;2023-10-08T06:20:10;11.77;;;5.28;;
32080;SDS011;18593;51.426;7.030;2023-10-08T06:22:42;12.80;;;4.90;;
32080;SDS011;18593;51.426;7.030;2023-10-08T06:25:12;11.82;;;5.40;;
32080;SDS011;18593;51.426;7.030;2023-10-08T06:27:48;11.98;;;5.63;;
32080;SDS011;18593;51.426;7.030;2023-10-08T06:30:19;12.32;;;5.22;;
32080;SDS011;18593;51.426;7.030;2023-10-08T06:32:47;14.23;;;5.80;;
32080;SDS011;18593;51.426;7.030;2023-10-08T06:35:17;16.45;;;6.18;;
32080;SDS011;18593;51.426;7.030;2023-10-08T06:37:46;13.82;;;5.70;;
32080;SDS011;18593;51.426;7.030;2023-10-08T06:40:21;21.33;;;6.72;;
32080;SDS011;18593;51.426;7.030;2023-10-08T06:43:08;15.35;;;6.00;;
32080;SDS011;18593;51.426;7.030;2023-10-08T06:45:42;13.90;;;5.80;;
32080;SDS011;18593;51.426;7.030;2023-10-08T06:48:13;11.70;;;5.40;;
32080;SDS011;18593;51.426;7.030;2023-10-08T06:50:46;15.85;;;5.95;;
32080;SDS011;18593;51.426;7.030;2023-10-08T06:53:15;16.40;;;6.05;;
32080;SDS011;18593;51.426;7.030;2023-10-08T06:55:45;15.38;;;5.50;;
32080;SDS011;18593;51.426;7.030;2023-10-08T06:58:21;16.20;;;6.18;;
32080;SDS011;18593;51.426;7.030;2023-10-08T07:00:50;15.90;;;6.05;;
32080;SDS011;18593;51.426;7.030;2023-10-08T07:03:20;14.57;;;6.10;;
32080;SDS011;18593;51.426;7.030;2023-10-08T07:05:48;16.90;;;5.95;;
32080;SDS011;18593;51.426;7.030;2023-10-08T07:08:31;13.18;;;5.78;;
32080;SDS011;18593;51.426;7.030;2023-10-08T07:11:02;17.10;;;5.95;;
32080;SDS011;18593;51.426;7.030;2023-10-08T07:13:32;15.07;;;5.32;;
32080;SDS011;18593;51.426;7.030;2023-10-08T07:16:02;15.23;;;5.67;;
32080;SDS011;18593;51.426;7.030;2023-10-08T07:18:32;15.88;;;6.40;;
32080;SDS011;18593;51.426;7.030;2023-10-08T07:21:00;14.52;;;5.80;;
32080;SDS011;18593;51.426;7.030;2023-10-08T07:23:37;17.40;;;5.90;;
32080;SDS011;18593;51.426;7.030;2023-10-08T07:26:23;13.48;;;5.80;;
32080;SDS011;18593;51.426;7.030;2023-10-08T07:29:01;20.13;;;5.95;;
32080;SDS011;18593;51.426;7.030;2023-10-08T07:31:33;15.85;;;6.43;;
32080;SDS011;18593;51.426;7.030;2023-10-08T07:34:02;15.05;;;5.85;;
32080;SDS011;18593;51.426;7.030;2023-10-08T07:36:46;17.52;;;6.10;;
32080;SDS011;18593;51.426;7.030;2023-10-08T07:39:19;15.00;;;5.97;;
32080;SDS011;18593;51.426;7.030;2023-10-08T07:42:05;14.40;;;6.55;;
32080;SDS011;18593;51.426;7.030;2023-10-08T07:44:36;19.55;;;6.57;;
32080;SDS011;18593;51.426;7.030;2023-10-08T07:47:05;15.43;;;6.45;;
32080;SDS011;18593;51.426;7.030;2023-10-08T07:49:37;16.65;;;6.55;;
32080;SDS011;18593;51.426;7.030;2023-10-08T07:52:05;14.60;;;6.55;;
32080;SDS011;18593;51.426;7.030;2023-10-08T07:54:33;19.55;;;6.45;;
32080;SDS011;18593;51.426;7.030;2023-10-08T07:57:01;16.65;;;6.68;;
32080;SDS011;18593;51.426;7.030;2023-10-08T07:59:37;31.15;;;10.88;;
32080;SDS011;18593;51.426;7.030;2023-10-08T08:02:07;31.63;;;11.63;;
32080;SDS011;18593;51.426;7.030;2023-10-08T08:04:36;31.52;;;11.48;;
32080;SDS011;18593;51.426;7.030;2023-10-08T08:07:05;34.78;;;13.30;;
32080;SDS011;18593;51.426;7.030;2023-10-08T08:09:32;31.25;;;12.55;;
32080;SDS011;18593;51.426;7.030;2023-10-08T08:12:06;38.83;;;14.95;;
32080;SDS011;18593;51.426;7.030;2023-10-08T08:14:36;35.97;;;14.75;;
32080;SDS011;18593;51.426;7.030;2023-10-08T08:17:06;35.55;;;13.55;;
32080;SDS011;18593;51.426;7.030;2023-10-08T08:19:39;43.30;;;14.73;;
32080;SDS011;18593;51.426;7.030;2023-10-08T08:22:09;40.85;;;16.23;;
32080;SDS011;18593;51.426;7.030;2023-10-08T08:29:56;41.25;;;15.60;;
32080;SDS011;18593;51.426;7.030;2023-10-08T08:32:35;28.27;;;13.75;;
32080;SDS011;18593;51.426;7.030;2023-10-08T08:35:04;26.77;;;12.27;;
32080;SDS011;18593;51.426;7.030;2023-10-08T08:37:34;22.17;;;9.17;;
32080;SDS011;18593;51.426;7.030;2023-10-08T08:40:03;19.85;;;9.15;;
32080;SDS011;18593;51.426;7.030;2023-10-08T08:42:45;16.23;;;8.55;;
32080;SDS011;18593;51.426;7.030;2023-10-08T08:45:16;17.60;;;8.02;;
32080;SDS011;18593;51.426;7.030;2023-10-08T08:47:48;17.20;;;7.00;;
32080;SDS011;18593;51.426;7.030;2023-10-08T08:50:16;19.08;;;6.88;;
32080;SDS011;18593;51.426;7.030;2023-10-08T08:52:44;14.50;;;5.75;;
32080;SDS011;18593;51.426;7.030;2023-10-08T08:55:12;14.65;;;5.97;;
32080;SDS011;18593;51.426;7.030;2023-10-08T08:57:41;16.70;;;6.97;;
32080;SDS011;18593;51.426;7.030;2023-10-08T09:00:11;21.98;;;7.35;;
32080;SDS011;18593;51.426;7.030;2023-10-08T09:02:42;18.50;;;7.22;;
32080;SDS011;18593;51.426;7.030;2023-10-08T09:05:12;15.15;;;6.65;;
32080;SDS011;18593;51.426;7.030;2023-10-08T09:07:53;22.20;;;9.90;;
32080;SDS011;18593;51.426;7.030;2023-10-08T09:10:23;31.92;;;15.20;;
32080;SDS011;18593;51.426;7.030;2023-10-08T09:12:54;29.13;;;20.23;;
32080;SDS011;18593;51.426;7.030;2023-10-08T09:15:26;40.35;;;26.00;;
32080;SDS011;18593;51.426;7.030;2023-10-08T09:17:54;44.60;;;27.88;;
32080;SDS011;18593;51.426;7.030;2023-10-08T09:20:25;47.97;;;26.17;;
32080;SDS011;18593;51.426;7.030;2023-10-08T09:23:06;45.28;;;23.33;;
32080;SDS011;18593;51.426;7.030;2023-10-08T09:25:36;27.30;;;16.33;;
32080;SDS011;18593;51.426;7.030;2023-10-08T09:28:05;25.52;;;13.20;;
32080;SDS011;18593;51.426;7.030;2023-10-08T09:30:35;25.85;;;11.82;;
32080;SDS011;18593;51.426;7.030;2023-10-08T09:33:04;24.85;;;10.82;;
32080;SDS011;18593;51.426;7.030;2023-10-08T09:35:32;21.20;;;9.10;;
32080;SDS011;18593;51.426;7.030;2023-10-08T09:38:01;23.20;;;8.43;;
32080;SDS011;18593;51.426;7.030;2023-10-08T09:40:30;19.05;;;7.60;;
32080;SDS011;18593;51.426;7.030;2023-10-08T09:42:58;14.70;;;7.05;;
32080;SDS011;18593;51.426;7.030;2023-10-08T09:45:27;15.77;;;6.40;;
32080;SDS011;18593;51.426;7.030;2023-10-08T09:47:57;16.17;;;7.30;;
32080;SDS011;18593;51.426;7.030;2023-10-08T09:50:28;16.75;;;5.65;;
32080;SDS011;18593;51.426;7.030;2023-10-08T09:53:00;15.60;;;5.68;;
32080;SDS011;18593;51.426;7.030;2023-10-08T09:55:36;13.38;;;5.30;;
32080;SDS011;18593;51.426;7.030;2023-10-08T09:58:10;12.60;;;5.00;;
32080;SDS011;18593;51.426;7.030;2023-10-08T10:00:42;16.17;;;5.00;;
32080;SDS011;18593;51.426;7.030;2023-10-08T10:03:15;12.82;;;5.20;;
32080;SDS011;18593;51.426;7.030;2023-10-08T10:05:49;9.63;;;5.38;;
32080;SDS011;18593;51.426;7.030;2023-10-08T10:08:23;9.95;;;4.32;;
32080;SDS011;18593;51.426;7.030;2023-10-08T10:10:57;9.48;;;5.00;;
32080;SDS011;18593;51.426;7.030;2023-10-08T10:13:27;9.88;;;4.35;;
32080;SDS011;18593;51.426;7.030;2023-10-08T10:15:58;7.50;;;4.10;;
32080;SDS011;18593;51.426;7.030;2023-10-08T10:18:30;10.85;;;4.32;;
32080;SDS011;18593;51.426;7.030;2023-10-08T10:21:00;9.52;;;4.38;;
32080;SDS011;18593;51.426;7.030;2023-10-08T10:23:53;9.25;;;4.18;;
32080;SDS011;18593;51.426;7.030;2023-10-08T10:26:22;6.70;;;3.55;;
32080;SDS011;18593;51.426;7.030;2023-10-08T10:31:51;7.10;;;2.60;;
32080;SDS011;18593;51.426;7.030;2023-10-08T10:34:22;11.13;;;2.72;;
32080;SDS011;18593;51.426;7.030;2023-10-08T10:36:54;6.45;;;2.22;;
32080;SDS011;18593;51.426;7.030;2023-10-08T10:39:40;4.35;;;1.58;;
32080;SDS011;18593;51.426;7.030;2023-10-08T10:42:12;8.05;;;1.73;;
32080;SDS011;18593;51.426;7.030;2023-10-08T10:44:47;7.32;;;1.63;;
32080;SDS011;18593;51.426;7.030;2023-10-08T10:47:19;6.47;;;1.92;;
32080;SDS011;18593;51.426;7.030;2023-10-08T10:49:54;7.88;;;2.13;;
32080;SDS011;18593;51.426;7.030;2023-10-08T10:52:51;6.50;;;1.63;;
32080;SDS011;18593;51.426;7.030;2023-10-08T10:55:19;6.10;;;1.33;;
32080;SDS011;18593;51.426;7.030;2023-10-08T10:57:48;5.93;;;1.77;;
32080;SDS011;18593;51.426;7.030;2023-10-08T11:00:21;7.45;;;1.50;;
32080;SDS011;18593;51.426;7.030;2023-10-08T11:03:07;4.00;;;1.40;;
32080;SDS011;18593;51.426;7.030;2023-10-08T11:05:52;8.15;;;2.40;;
32080;SDS011;18593;51.426;7.030;2023-10-08T11:08:36;10.40;;;2.53;;
32080;SDS011;18593;51.426;7.030;2023-10-08T11:11:11;8.57;;;2.50;;
32080;SDS011;18593;51.426;7.030;2023-10-08T11:13:42;9.70;;;2.15;;
32080;SDS011;18593;51.426;7.030;2023-10-08T11:16:17;8.18;;;1.95;;
32080;SDS011;18593;51.426;7.030;2023-10-08T11:18:47;9.88;;;2.20;;
32080;SDS011;18593;51.426;7.030;2023-10-08T11:21:16;6.63;;;2.13;;
32080;SDS011;18593;51.426;7.030;2023-10-08T11:23:51;7.70;;;1.70;;
32080;SDS011;18593;51.426;7.030;2023-10-08T11:26:21;8.57;;;2.30;;
32080;SDS011;18593;51.426;7.030;2023-10-08T11:28:58;7.72;;;3.10;;
32080;SDS011;18593;51.426;7.030;2023-10-08T11:31:28;10.88;;;3.75;;
32080;SDS011;18593;51.426;7.030;2023-10-08T11:33:59;14.63;;;3.90;;
32080;SDS011;18593;51.426;7.030;2023-10-08T11:36:33;11.38;;;3.30;;
32080;SDS011;18593;51.426;7.030;2023-10-08T11:39:15;9.18;;;3.38;;
32080;SDS011;18593;51.426;7.030;2023-10-08T11:41:54;12.77;;;3.70;;
32080;SDS011;18593;51.426;7.030;2023-10-08T11:44:28;12.00;;;3.70;;
32080;SDS011;18593;51.426;7.030;2023-10-08T11:47:01;10.48;;;3.88;;
32080;SDS011;18593;51.426;7.030;2023-10-08T11:49:36;11.13;;;3.78;;
32080;SDS011;18593;51.426;7.030;2023-10-08T11:52:12;13.30;;;3.83;;
32080;SDS011;18593;51.426;7.030;2023-10-08T11:54:42;8.40;;;3.67;;
32080;SDS011;18593;51.426;7.030;2023-10-08T11:57:13;10.55;;;3.95;;
32080;SDS011;18593;51.426;7.030;2023-10-08T11:59:44;13.13;;;3.95;;
32080;SDS011;18593;51.426;7.030;2023-10-08T12:02:16;10.20;;;3.50;;
32080;SDS011;18593;51.426;7.030;2023-10-08T12:04:47;10.10;;;3.17;;
32080;SDS011;18593;51.426;7.030;2023-10-08T12:07:22;7.13;;;2.80;;
32080;SDS011;18593;51.426;7.030;2023-10-08T12:09:57;7.45;;;3.03;;
32080;SDS011;18593;51.426;7.030;2023-10-08T12:12:25;12.85;;;3.28;;
32080;SDS011;18593;51.426;7.030;2023-10-08T12:14:58;8.13;;;2.90;;
32080;SDS011;18593;51.426;7.030;2023-10-08T12:17:36;7.38;;;3.08;;
32080;SDS011;18593;51.426;7.030;2023-10-08T12:20:05;10.48;;;3.05;;
32080;SDS011;18593;51.426;7.030;2023-10-08T12:22:48;10.18;;;3.15;;
32080;SDS011;18593;51.426;7.030;2023-10-08T12:25:23;10.65;;;3.63;;
32080;SDS011;18593;51.426;7.030;2023-10-08T12:27:50;9.95;;;3.03;;
32080;SDS011;18593;51.426;7.030;2023-10-08T12:30:22;6.45;;;2.80;;
32080;SDS011;18593;51.426;7.030;2023-10-08T12:32:55;13.20;;;3.05;;
32080;SDS011;18593;51.426;7.030;2023-10-08T12:35:23;8.43;;;2.95;;
32080;SDS011;18593;51.426;7.030;2023-10-08T12:37:51;7.85;;;2.60;;
32080;SDS011;18593;51.426;7.030;2023-10-08T12:40:20;9.15;;;3.25;;
32080;SDS011;18593;51.426;7.030;2023-10-08T12:42:50;7.00;;;3.00;;
32080;SDS011;18593;51.426;7.030;2023-10-08T12:45:19;10.00;;;2.80;;
32080;SDS011;18593;51.426;7.030;2023-10-08T12:47:48;9.35;;;3.03;;
32080;SDS011;18593;51.426;7.030;2023-10-08T12:50:16;11.10;;;3.00;;
32080;SDS011;18593;51.426;7.030;2023-10-08T12:52:49;8.95;;;2.70;;
32080;SDS011;18593;51.426;7.030;2023-10-08T12:57:51;4.05;;;2.08;;
32080;SDS011;18593;51.426;7.030;2023-10-08T13:00:21;7.38;;;2.45;;
32080;SDS011;18593;51.426;7.030;2023-10-08T13:02:52;7.15;;;2.80;;
32080;SDS011;18593;51.426;7.030;2023-10-08T13:05:20;7.35;;;2.22;;
32080;SDS011;18593;51.426;7.030;2023-10-08T13:07:53;9.10;;;2.38;;
32080;SDS011;18593;51.426;7.030;2023-10-08T13:10:22;9.52;;;2.50;;
32080;SDS011;18593;51.426;7.030;2023-10-08T13:12:52;8.30;;;2.60;;
32080;SDS011;18593;51.426;7.030;2023-10-08T13:15:22;8.85;;;2.60;;
32080;SDS011;18593;51.426;7.030;2023-10-08T13:18:13;6.45;;;2.60;;
32080;SDS011;18593;51.426;7.030;2023-10-08T13:21:12;6.03;;;2.40;;
32080;SDS011;18593;51.426;7.030;2023-10-08T13:23:40;6.28;;;2.42;;
32080;SDS011;18593;51.426;7.030;2023-10-08T13:26:09;6.15;;;2.17;;
32080;SDS011;18593;51.426;7.030;2023-10-08T13:28:43;5.10;;;2.25;;
32080;SDS011;18593;51.426;7.030;2023-10-08T13:31:11;5.25;;;2.40;;
32080;SDS011;18593;51.426;7.030;2023-10-08T13:33:41;9.27;;;2.88;;
32080;SDS011;18593;51.426;7.030;2023-10-08T13:36:14;6.35;;;2.70;;
32080;SDS011;18593;51.426;7.030;2023-10-08T13:38:42;7.90;;;3.03;;
32080;SDS011;18593;51.426;7.030;2023-10-08T13:41:12;6.80;;;2.42;;
32080;SDS011;18593;51.426;7.030;2023-10-08T13:43:45;7.85;;;2.50;;
32080;SDS011;18593;51.426;7.030;2023-10-08T13:46:17;7.65;;;2.67;;
32080;SDS011;18593;51.426;7.030;2023-10-08T13:48:48;8.75;;;2.50;;
32080;SDS011;18593;51.426;7.030;2023-10-08T13:51:17;7.85;;;2.90;;
32080;SDS011;18593;51.426;7.030;2023-10-08T13:53:49;8.00;;;2.95;;
32080;SDS011;18593;51.426;7.030;2023-10-08T13:56:20;7.88;;;2.65;;
32080;SDS011;18593;51.426;7.030;2023-10-08T13:58:53;9.10;;;3.35;;
32080;SDS011;18593;51.426;7.030;2023-10-08T14:01:29;6.68;;;2.83;;
32080;SDS011;18593;51.426;7.030;2023-10-08T14:03:58;6.57;;;2.80;;
32080;SDS011;18593;51.426;7.030;2023-10-08T14:06:30;6.53;;;2.97;;
32080;SDS011;18593;51.426;7.030;2023-10-08T14:08:59;8.68;;;3.08;;
32080;SDS011;18593;51.426;7.030;2023-10-08T14:11:32;7.85;;;3.75;;
32080;SDS011;18593;51.426;7.030;2023-10-08T14:14:01;9.43;;;3.80;;
32080;SDS011;18593;51.426;7.030;2023-10-08T14:16:33;9.13;;;3.90;;
32080;SDS011;18593;51.426;7.030;2023-10-08T14:19:00;8.40;;;4.00;;
32080;SDS011;18593;51.426;7.030;2023-10-08T14:21:30;8.65;;;4.30;;
32080;SDS011;18593;51.426;7.030;2023-10-08T14:24:02;6.20;;;3.30;;
32080;SDS011;18593;51.426;7.030;2023-10-08T14:26:30;7.63;;;3.40;;
32080;SDS011;18593;51.426;7.030;2023-10-08T14:29:03;9.35;;;3.78;;
32080;SDS011;18593;51.426;7.030;2023-10-08T14:31:36;10.38;;;3.33;;
32080;SDS011;18593;51.426;7.030;2023-10-08T14:34:04;8.43;;;3.83;;
32080;SDS011;18593;51.426;7.030;2023-10-08T14:36:44;8.27;;;3.42;;
32080;SDS011;18593;51.426;7.030;2023-10-08T14:39:32;10.57;;;4.32;;
32080;SDS011;18593;51.426;7.030;2023-10-08T14:42:16;10.30;;;4.43;;
32080;SDS011;18593;51.426;7.030;2023-10-08T14:45:03;8.35;;;4.45;;
32080;SDS011;18593;51.426;7.030;2023-10-08T14:47:36;11.27;;;4.75;;
32080;SDS011;18593;51.426;7.030;2023-10-08T14:50:03;10.48;;;4.97;;
32080;SDS011;18593;51.426;7.030;2023-10-08T14:52:41;10.57;;;4.60;;
32080;SDS011;18593;51.426;7.030;2023-10-08T14:55:09;10.15;;;4.50;;
32080;SDS011;18593;51.426;7.030;2023-10-08T14:57:38;9.32;;;4.20;;
32080;SDS011;18593;51.426;7.030;2023-10-08T15:00:09;13.43;;;4.75;;
32080;SDS011;18593;51.426;7.030;2023-10-08T15:02:37;10.65;;;5.32;;
32080;SDS011;18593;51.426;7.030;2023-10-08T15:05:05;10.15;;;4.85;;
32080;SDS011;18593;51.426;7.030;2023-10-08T15:07:36;8.77;;;4.60;;
32080;SDS011;18593;51.426;7.030;2023-10-08T15:10:04;8.27;;;4.40;;
32080;SDS011;18593;51.426;7.030;2023-10-08T15:12:35;8.15;;;4.43;;
32080;SDS011;18593;51.426;7.030;2023-10-08T15:15:03;10.15;;;4.65;;
32080;SDS011;18593;51.426;7.030;2023-10-08T15:17:39;12.10;;;4.55;;
32080;SDS011;18593;51.426;7.030;2023-10-08T15:20:08;8.15;;;4.32;;
32080;SDS011;18593;51.426;7.030;2023-10-08T15:22:40;7.65;;;3.83;;
32080;SDS011;18593;51.426;7.030;2023-10-08T15:25:09;9.75;;;4.03;;
32080;SDS011;18593;51.426;7.030;2023-10-08T15:27:37;9.30;;;4.03;;
32080;SDS011;18593;51.426;7.030;2023-10-08T15:30:06;8.40;;;4.13;;
32080;SDS011;18593;51.426;7.030;2023-10-08T15:32:37;9.63;;;3.95;;